createdAt,value
2016-05-21T00:00:23.545Z,58.22
2016-05-21T00:01:23.516Z,58.22
2016-05-21T00:02:23.378Z,58.4
2016-05-21T00:03:23.522Z,58.4
2016-05-21T00:04:23.508Z,58.5
2016-05-21T00:05:23.511Z,58.59
2016-05-21T00:06:23.513Z,58.5
2016-05-21T00:07:23.501Z,58.69
2016-05-21T00:08:23.503Z,58.79
2016-05-21T00:09:23.506Z,59.08
2016-05-21T00:10:23.508Z,58.98
2016-05-21T00:11:23.977Z,58.12
2016-05-21T00:12:23.527Z,58.98
2016-05-21T00:13:23.560Z,58.69
2016-05-21T00:14:23.547Z,58.69
2016-05-21T00:15:23.566Z,58.5
2016-05-21T00:16:23.437Z,58.69
2016-05-21T00:17:23.429Z,58.98
2016-05-21T00:18:23.594Z,59.08
2016-05-21T00:19:23.602Z,58.79
2016-05-21T00:20:23.595Z,59.17
2016-05-21T00:21:23.601Z,58.79
2016-05-21T00:22:23.607Z,59.43
2016-05-21T00:23:23.595Z,58.95
2016-05-21T00:24:23.601Z,59.05
2016-05-21T00:25:23.605Z,58.56
2016-05-21T00:26:23.609Z,59.36
2016-05-21T00:27:24.754Z,58.95
2016-05-21T00:28:23.647Z,58.86
2016-05-21T00:29:23.650Z,58.95
2016-05-21T00:30:23.903Z,59.05
2016-05-21T00:31:23.595Z,59.05
2016-05-21T00:32:23.488Z,59.05
2016-05-21T00:33:23.600Z,59.23
2016-05-21T00:34:23.603Z,58.86
2016-05-21T00:35:23.590Z,58.76
2016-05-21T00:36:23.764Z,59.23
2016-05-21T00:37:23.595Z,59.08
2016-05-21T00:38:23.582Z,58.88
2016-05-21T00:39:23.584Z,59.08
2016-05-21T00:40:23.587Z,59.17
2016-05-21T00:41:25.450Z,59.17
2016-05-21T00:42:23.577Z,58.88
2016-05-21T00:43:23.595Z,59.36
2016-05-21T00:44:23.582Z,59.27
2016-05-21T00:45:23.961Z,58.98
2016-05-21T00:46:23.589Z,58.98
2016-05-21T00:47:23.591Z,59.08
2016-05-21T00:48:23.578Z,58.98
2016-05-21T00:50:24.349Z,59.55
2016-05-21T00:51:25.024Z,59.75
2016-05-21T00:52:23.573Z,59.27
2016-05-21T00:53:24.091Z,59.45
2016-05-21T00:54:23.921Z,59.45
2016-05-21T00:55:23.565Z,59.84
2016-05-21T00:56:23.927Z,59.84
2016-05-21T00:57:23.570Z,59.84
2016-05-21T00:58:23.557Z,60.13
2016-05-21T00:59:23.560Z,59.94
2016-05-21T01:00:23.563Z,59.94
2016-05-21T01:01:23.551Z,59.94
2016-05-21T01:02:23.396Z,59.65
2016-05-21T01:03:23.556Z,59.94
2016-05-21T01:04:23.559Z,59.84
2016-05-21T01:05:23.561Z,59.84
2016-05-21T01:06:23.392Z,59.84
2016-05-21T01:07:23.551Z,59.45
2016-05-21T01:08:23.553Z,59.75
2016-05-21T01:09:23.556Z,59.45
2016-05-21T01:10:23.542Z,59.65
2016-05-21T01:11:23.999Z,59.75
2016-05-21T01:12:23.392Z,59.65
2016-05-21T01:13:23.550Z,59.65
2016-05-21T01:14:23.539Z,59.75
2016-05-21T01:15:23.541Z,59.84
2016-05-21T01:16:23.388Z,59.84
2016-05-21T01:17:23.531Z,59.65
2016-05-21T01:18:23.549Z,59.55
2016-05-21T01:19:23.552Z,59.75
2016-05-21T01:20:23.539Z,59.94
2016-05-21T01:21:23.526Z,59.55
2016-05-21T01:22:23.529Z,59.75
2016-05-21T01:23:23.532Z,59.65
2016-05-21T01:24:24.393Z,59.65
2016-05-21T01:25:23.521Z,59.75
2016-05-21T01:26:23.382Z,59.65
2016-05-21T01:27:23.526Z,59.94
2016-05-21T01:28:23.529Z,59.65
2016-05-21T01:29:23.532Z,59.84
2016-05-21T01:30:23.519Z,59.65
2016-05-21T01:31:23.521Z,59.75
2016-05-21T01:32:23.524Z,60.03
2016-05-21T01:33:23.512Z,59.75
2016-05-21T01:34:23.514Z,59.84
2016-05-21T01:35:23.517Z,59.94
2016-05-21T01:36:23.520Z,59.94
2016-05-21T01:37:23.506Z,59.75
2016-05-21T01:38:23.509Z,59.75
2016-05-21T01:39:23.512Z,60.03
2016-05-21T01:40:23.514Z,59.84
2016-05-21T01:41:23.517Z,59.94
2016-05-21T01:42:23.520Z,59.65
2016-05-21T01:43:23.507Z,59.94
2016-05-21T01:44:23.510Z,59.65
2016-05-21T01:45:24.309Z,60.03
2016-05-21T01:46:23.359Z,59.65
2016-05-21T01:47:23.502Z,59.84
2016-05-21T01:48:23.489Z,59.94
2016-05-21T01:49:23.508Z,59.84
2016-05-21T01:50:23.494Z,59.94
2016-05-21T01:51:23.497Z,59.75
2016-05-21T01:52:23.499Z,59.94
2016-05-21T01:53:23.487Z,59.94
2016-05-21T01:54:23.333Z,59.65
2016-05-21T01:55:24.086Z,59.84
2016-05-21T01:56:23.496Z,59.75
2016-05-21T01:57:23.482Z,59.84
2016-05-21T01:58:23.485Z,60.03
2016-05-21T01:59:25.957Z,60.22
2016-05-21T02:00:23.490Z,59.84
2016-05-21T02:01:23.524Z,60.22
2016-05-21T02:02:23.479Z,60.32
2016-05-21T02:03:23.342Z,60.22
2016-05-21T02:04:23.517Z,60.13
2016-05-21T02:05:23.472Z,60.13
2016-05-21T02:06:23.318Z,60.22
2016-05-21T02:07:23.493Z,60.41
2016-05-21T02:09:24.498Z,60.22
2016-05-21T02:10:23.470Z,60.41
2016-05-21T02:11:23.473Z,60.41
2016-05-21T02:12:23.460Z,60.41
2016-05-21T02:13:23.666Z,60.41
2016-05-21T02:14:23.465Z,60.51
2016-05-21T02:15:23.468Z,60.22
2016-05-21T02:16:23.470Z,60.22
2016-05-21T02:17:23.458Z,60.41
2016-05-21T02:18:23.460Z,60.61
2016-05-21T02:19:23.463Z,60.22
2016-05-21T02:20:23.450Z,60.41
2016-05-21T02:21:23.469Z,60.51
2016-05-21T02:22:23.455Z,60.61
2016-05-21T02:23:23.474Z,60.7
2016-05-21T02:24:23.461Z,60.41
2016-05-21T02:25:23.449Z,60.41
2016-05-21T02:26:23.622Z,60.61
2016-05-21T02:27:23.453Z,60.7
2016-05-21T02:28:23.441Z,60.8
2016-05-21T02:29:23.443Z,60.7
2016-05-21T02:30:23.446Z,60.8
2016-05-21T02:31:23.449Z,61.08
2016-05-21T02:32:23.435Z,60.89
2016-05-21T02:33:23.438Z,60.8
2016-05-21T02:34:23.440Z,60.89
2016-05-21T02:35:23.444Z,60.99
2016-05-21T02:36:23.430Z,60.99
2016-05-21T02:37:23.277Z,60.89
2016-05-21T02:38:23.437Z,60.89
2016-05-21T02:39:23.439Z,61.08
2016-05-21T02:40:23.426Z,60.99
2016-05-21T02:41:23.272Z,61.08
2016-05-21T02:42:23.431Z,61.08
2016-05-21T02:43:23.278Z,60.99
2016-05-21T02:44:23.264Z,61.08
2016-05-21T02:45:23.423Z,60.89
2016-05-21T02:46:23.425Z,62.14
2016-05-21T02:47:23.428Z,60.8
2016-05-21T02:48:23.416Z,60.89
2016-05-21T02:49:23.419Z,61.18
2016-05-21T02:50:23.422Z,61.18
2016-05-21T02:51:23.455Z,60.99
2016-05-21T02:52:23.489Z,61.76
2016-05-21T02:53:23.414Z,61.66
2016-05-21T02:54:23.416Z,61.66
2016-05-21T02:55:23.622Z,61.57
2016-05-21T02:56:23.750Z,61.47
2016-05-21T02:57:23.409Z,61.47
2016-05-21T02:58:23.412Z,61.66
2016-05-21T02:59:23.415Z,61.66
2016-05-21T03:00:23.402Z,61.57
2016-05-21T03:01:23.404Z,61.57
2016-05-21T03:02:23.406Z,61.28
2016-05-21T03:03:23.644Z,61.47
2016-05-21T03:04:23.553Z,61.76
2016-05-21T03:05:23.399Z,61.94
2016-05-21T03:06:37.573Z,62.43
2016-05-21T03:08:23.845Z,62.9
2016-05-21T03:09:23.395Z,62.81
2016-05-21T03:10:23.397Z,62.81
2016-05-21T03:11:23.243Z,63
2016-05-21T03:12:23.387Z,63.19
2016-05-21T03:13:24.452Z,63.1
2016-05-21T03:14:37.564Z,63.39
2016-05-21T03:16:23.381Z,63.39
2016-05-21T03:17:23.681Z,63.57
2016-05-21T03:18:25.091Z,63.57
2016-05-21T03:19:24.483Z,63.86
2016-05-21T03:20:23.378Z,63.76
2016-05-21T03:21:23.645Z,63.76
2016-05-21T03:22:23.461Z,64.31
2016-05-21T03:23:23.386Z,64.31
2016-05-21T03:24:23.482Z,64.59
2016-05-21T03:25:23.375Z,64.88
2016-05-21T03:26:23.440Z,65.08
2016-05-21T03:28:23.383Z,65.45
2016-05-21T03:29:23.370Z,65.45
2016-05-21T03:30:23.201Z,65.55
2016-05-21T03:31:23.360Z,65.36
2016-05-21T03:32:24.049Z,65.74
2016-05-21T03:33:23.787Z,65.94
2016-05-21T03:34:23.368Z,65.55
2016-05-21T03:35:23.355Z,65.55
2016-05-21T03:36:23.357Z,65.74
2016-05-21T03:37:23.360Z,65.74
2016-05-21T03:38:23.363Z,65.94
2016-05-21T03:39:23.193Z,65.74
2016-05-21T03:40:23.353Z,66.03
2016-05-21T03:41:23.356Z,65.94
2016-05-21T03:42:23.358Z,65.84
2016-05-21T03:43:23.345Z,65.94
2016-05-21T03:44:23.348Z,65.84
2016-05-21T03:45:23.350Z,65.74
2016-05-21T03:46:23.337Z,65.84
2016-05-21T03:47:23.340Z,66.03
2016-05-21T03:48:23.343Z,66.13
2016-05-21T03:49:23.189Z,66.13
2016-05-21T03:50:23.348Z,66.13
2016-05-21T03:51:23.180Z,66.03
2016-05-21T03:52:23.338Z,65.68
2016-05-21T03:53:23.341Z,65.58
2016-05-21T03:54:23.188Z,65.88
2016-05-21T03:55:23.330Z,65.68
2016-05-21T03:56:23.333Z,65.68
2016-05-21T03:57:23.336Z,65.78
2016-05-21T03:58:23.339Z,65.39
2016-05-21T03:59:23.326Z,65.39
2016-05-21T04:00:23.172Z,65.39
2016-05-21T04:01:23.331Z,65.39
2016-05-21T04:02:23.318Z,65.49
2016-05-21T04:03:23.180Z,65.58
2016-05-21T04:04:23.324Z,65.49
2016-05-21T04:05:23.326Z,65.49
2016-05-21T04:06:23.313Z,65.68
2016-05-21T04:07:23.316Z,65.39
2016-05-21T04:08:23.318Z,65.39
2016-05-21T04:09:23.321Z,65.58
2016-05-21T04:10:23.309Z,65.58
2016-05-21T04:11:23.311Z,65.58
2016-05-21T04:12:23.314Z,65.68
2016-05-21T04:13:23.145Z,65.78
2016-05-21T04:14:23.304Z,65.39
2016-05-21T04:15:23.307Z,65.23
2016-05-21T04:16:23.309Z,65.14
2016-05-21T04:17:23.296Z,65.14
2016-05-21T04:18:23.298Z,65.23
2016-05-21T04:19:23.301Z,64.76
2016-05-21T04:20:23.304Z,64.66
2016-05-21T04:21:23.307Z,64.09
2016-05-21T04:22:23.747Z,64.66
2016-05-21T04:23:23.312Z,64.37
2016-05-21T04:24:23.346Z,63.7
2016-05-21T04:25:23.443Z,63.89
2016-05-21T04:26:23.304Z,63.92
2016-05-21T04:27:23.744Z,64.22
2016-05-21T04:28:23.294Z,63.35
2016-05-21T04:29:23.297Z,63.92
2016-05-21T04:30:23.300Z,63.45
2016-05-21T04:31:23.396Z,63.16
2016-05-21T04:32:23.493Z,63.16
2016-05-21T04:33:23.292Z,62.77
2016-05-21T04:34:37.623Z,62.71
2016-05-21T04:35:23.282Z,62.71
2016-05-21T04:36:24.268Z,61.66
2016-05-21T04:37:24.772Z,61.94
2016-05-21T04:38:23.290Z,61.75
2016-05-21T04:39:23.293Z,61.49
2016-05-21T04:40:23.296Z,61.02
2016-05-21T04:41:24.095Z,61.11
2016-05-21T04:42:23.285Z,60.92
2016-05-21T04:43:23.131Z,60.47
2016-05-21T04:44:23.290Z,59.89
2016-05-21T04:45:23.278Z,59.89
2016-05-21T04:46:25.281Z,60.18
2016-05-21T04:47:24.814Z,59.32
2016-05-21T04:48:23.723Z,59.12
2016-05-21T04:49:24.351Z,58.96
2016-05-21T04:50:23.292Z,58.48
2016-05-21T04:51:23.294Z,58.77
2016-05-21T04:52:23.297Z,58.39
2016-05-21T04:53:23.486Z,58.2
2016-05-21T04:54:23.286Z,58.13
2016-05-21T04:55:23.289Z,57.93
2016-05-21T04:56:23.308Z,57.65
2016-05-21T04:57:23.294Z,57.17
2016-05-21T04:58:23.140Z,57.17
2016-05-21T04:59:23.300Z,56.88
2016-05-21T05:00:23.146Z,56.68
2016-05-21T05:01:23.133Z,56.88
2016-05-21T05:02:23.291Z,56.14
2016-05-21T05:03:23.154Z,56.52
2016-05-21T05:04:23.141Z,56.33
2016-05-21T05:05:23.300Z,55.66
2016-05-21T05:06:23.302Z,55.94
2016-05-21T05:07:23.305Z,55.85
2016-05-21T05:08:23.307Z,55.37
2016-05-21T05:09:23.311Z,55.49
2016-05-21T05:10:23.313Z,54.91
2016-05-21T05:11:23.832Z,54.72
2016-05-21T05:12:23.319Z,54.53
2016-05-21T05:13:23.321Z,53.86
2016-05-21T05:14:23.324Z,54.36
2016-05-21T05:15:23.327Z,53.21
2016-05-21T05:16:23.330Z,53.31
2016-05-21T05:17:23.317Z,52.27
2016-05-21T05:18:23.335Z,52.27
2016-05-21T05:19:23.337Z,52.08
2016-05-21T05:20:23.325Z,51.34
2016-05-21T05:21:23.328Z,50.78
2016-05-21T05:22:23.330Z,50.21
2016-05-21T05:23:23.333Z,49.27
2016-05-21T05:24:23.351Z,49.48
2016-05-21T05:25:23.541Z,48.23
2016-05-21T05:26:23.544Z,47.77
2016-05-21T05:27:23.359Z,47.48
2016-05-21T05:28:23.361Z,46.44
2016-05-21T05:29:23.381Z,46.08
2016-05-21T05:30:23.211Z,45.62
2016-05-21T05:31:23.369Z,44.87
2016-05-21T05:32:23.388Z,44.38
2016-05-21T05:33:23.391Z,43.71
2016-05-21T05:34:23.394Z,43.24
2016-05-21T05:35:23.240Z,43.05
2016-05-21T05:36:23.416Z,42.49
2016-05-21T05:37:23.260Z,42.1
2016-05-21T05:38:23.420Z,41.72
2016-05-21T05:39:23.438Z,41.16
2016-05-21T05:40:23.441Z,41.17
2016-05-21T05:41:24.053Z,40.5
2016-05-21T05:42:24.306Z,39.74
2016-05-21T05:43:37.840Z,38.96
2016-05-21T05:44:23.624Z,38.81
2016-05-21T05:45:23.486Z,37.94
2016-05-21T05:46:23.489Z,37.86
2016-05-21T05:47:23.741Z,37.37
2016-05-21T05:48:23.509Z,37.2
2016-05-21T05:49:23.512Z,36.13
2016-05-21T05:50:24.671Z,36.15
2016-05-21T05:51:23.533Z,35.76
2016-05-21T05:52:24.692Z,35.37
2016-05-21T05:54:24.572Z,34.59
2016-05-21T05:55:24.419Z,34.61
2016-05-21T05:56:23.672Z,34.05
2016-05-21T05:57:23.581Z,33.56
2016-05-21T05:58:23.614Z,33.28
2016-05-21T05:59:24.445Z,32.23
2016-05-21T06:00:23.619Z,31.84
2016-05-21T06:01:23.638Z,31.74
2016-05-21T06:02:23.657Z,31.17
2016-05-21T06:03:23.660Z,30.31
2016-05-21T06:04:23.741Z,30.22
2016-05-21T06:05:23.915Z,29.56
2016-05-21T06:06:23.699Z,29.28
2016-05-21T06:07:23.701Z,28.78
2016-05-21T06:08:23.844Z,28.58
2016-05-21T06:09:23.738Z,28.49
2016-05-21T06:10:23.741Z,28.29
2016-05-21T06:11:24.118Z,28.67
2016-05-21T06:12:23.605Z,28.96
2016-05-21T06:13:23.796Z,28.75
2016-05-21T06:14:23.782Z,29.04
2016-05-21T06:15:23.801Z,28.93
2016-05-21T06:16:23.820Z,28.64
2016-05-21T06:17:23.822Z,29.4
2016-05-21T06:18:23.840Z,29.19
2016-05-21T06:19:23.843Z,29.58
2016-05-21T06:20:23.705Z,29.28
2016-05-21T06:21:23.864Z,29.96
2016-05-21T06:22:23.726Z,30.33
2016-05-21T06:23:23.885Z,30.22
2016-05-21T06:24:23.903Z,30.12
2016-05-21T06:25:23.922Z,30.3
2016-05-21T06:26:23.972Z,30.97
2016-05-21T06:27:23.927Z,31.16
2016-05-21T06:28:23.930Z,31.15
2016-05-21T06:29:23.948Z,31.73
2016-05-21T06:30:23.950Z,31.91
2016-05-21T06:31:23.953Z,32.28
2016-05-21T06:32:23.971Z,32.84
2016-05-21T06:33:23.818Z,33.33
2016-05-21T06:34:23.993Z,33.42
2016-05-21T06:35:23.996Z,33.22
2016-05-21T06:36:23.999Z,33.89
2016-05-21T06:37:24.016Z,34.36
2016-05-21T06:38:24.019Z,34.65
2016-05-21T06:39:24.022Z,34.55
2016-05-21T06:40:24.025Z,34.84
2016-05-21T06:41:24.073Z,35.04
2016-05-21T06:42:24.046Z,35.13
2016-05-21T06:43:24.048Z,35.04
2016-05-21T06:44:24.051Z,35.04
2016-05-21T06:45:24.068Z,34.84
2016-05-21T06:46:24.071Z,35.33
2016-05-21T06:47:24.074Z,35.6
2016-05-21T06:48:24.077Z,35.8
2016-05-21T06:49:24.096Z,35.99
2016-05-21T06:50:24.098Z,35.89
2016-05-21T06:51:24.101Z,35.99
2016-05-21T06:52:24.103Z,35.89
2016-05-21T06:53:24.122Z,35.91
2016-05-21T06:54:24.125Z,35.81
2016-05-21T06:55:24.128Z,35.91
2016-05-21T06:56:24.145Z,35.81
2016-05-21T06:57:24.164Z,34.86
2016-05-21T06:58:24.151Z,34.78
2016-05-21T06:59:24.013Z,34.31
2016-05-21T07:00:24.766Z,33.46
2016-05-21T07:01:24.284Z,32.89
2016-05-21T07:02:24.193Z,32.6
2016-05-21T07:03:24.211Z,31.84
2016-05-21T07:04:24.214Z,31.66
2016-05-21T07:05:24.061Z,31.1
2016-05-21T07:06:24.235Z,30.24
2016-05-21T07:07:24.253Z,29.88
2016-05-21T07:08:24.256Z,29.3
2016-05-21T07:09:25.524Z,28.54
2016-05-21T07:10:24.276Z,27.78
2016-05-21T07:11:24.311Z,27.98
2016-05-21T07:12:24.157Z,27.5
2016-05-21T07:13:24.473Z,26.82
2016-05-21T07:14:24.351Z,25.76
2016-05-21T07:15:24.353Z,25.78
2016-05-21T07:16:24.371Z,25.11
2016-05-21T07:17:24.890Z,25.02
2016-05-21T07:18:25.330Z,24.46
2016-05-21T07:19:24.410Z,24.46
2016-05-21T07:20:24.726Z,23.69
2016-05-21T07:21:24.448Z,23.59
2016-05-21T07:22:24.450Z,23.49
2016-05-21T07:23:24.515Z,22.81
2016-05-21T07:24:26.017Z,22.62
2016-05-21T07:25:24.506Z,22.91
2016-05-21T07:26:24.367Z,23.09
2016-05-21T07:27:25.275Z,22.6
2016-05-21T07:28:24.545Z,22.12
2016-05-21T07:29:24.406Z,22.12
2016-05-21T07:30:24.581Z,21.73
2016-05-21T07:31:24.600Z,22.02
2016-05-21T07:32:24.617Z,22.12
2016-05-21T07:33:24.636Z,22.11
2016-05-21T07:34:24.654Z,21.92
2016-05-21T07:35:24.657Z,21.81
2016-05-21T07:36:24.675Z,22.3
2016-05-21T07:37:24.693Z,21.71
2016-05-21T07:38:24.711Z,21.91
2016-05-21T07:39:24.730Z,21.99
2016-05-21T07:40:24.749Z,22.28
2016-05-21T07:41:25.048Z,22.19
2016-05-21T07:42:24.610Z,22.19
2016-05-21T07:43:24.785Z,21.8
2016-05-21T07:44:24.804Z,22.09
2016-05-21T07:45:24.821Z,21.8
2016-05-21T07:46:24.824Z,21.32
2016-05-21T07:47:24.858Z,21.42
2016-05-21T07:48:24.861Z,20.95
2016-05-21T07:49:24.879Z,21.24
2016-05-21T07:50:24.882Z,20.47
2016-05-21T07:51:24.901Z,20.86
2016-05-21T07:52:24.918Z,20.18
2016-05-21T07:53:24.936Z,20.19
2016-05-21T07:54:24.799Z,19.91
2016-05-21T07:55:24.973Z,19.04
2016-05-21T07:56:25.007Z,19.24
2016-05-21T07:57:25.010Z,18.86
2016-05-21T07:58:25.028Z,18.08
2016-05-21T07:59:25.062Z,18.08
2016-05-21T08:00:25.065Z,17.5
2016-05-21T08:01:25.084Z,17.69
2016-05-21T08:02:24.945Z,17.5
2016-05-21T08:03:25.136Z,17.11
2016-05-21T08:04:25.153Z,17.21
2016-05-21T08:05:25.172Z,16.72
2016-05-21T08:06:25.034Z,16.82
2016-05-21T08:07:25.209Z,16.53
2016-05-21T08:08:25.227Z,16.64
2016-05-21T08:09:25.246Z,16.54
2016-05-21T08:10:25.264Z,15.95
2016-05-21T08:11:25.297Z,15.66
2016-05-21T08:12:25.300Z,15.66
2016-05-21T08:13:25.335Z,15.17
2016-05-21T08:14:25.352Z,15.36
2016-05-21T08:15:25.216Z,14.57
2016-05-21T08:16:25.389Z,14.86
2016-05-21T08:17:25.424Z,15.05
2016-05-21T08:18:26.332Z,15.15
2016-05-21T08:19:25.913Z,15.44
2016-05-21T08:20:25.510Z,15.25
2016-05-21T08:21:25.512Z,14.65
2016-05-21T08:22:25.515Z,14.56
2016-05-21T08:23:25.690Z,14.75
2016-05-21T08:24:25.411Z,14.65
2016-05-21T08:25:25.585Z,14.43
2016-05-21T08:26:25.667Z,15.01
2016-05-21T08:27:25.653Z,15.69
2016-05-21T08:29:26.315Z,15.98
2016-05-21T08:30:26.240Z,16.47
2016-05-21T08:31:25.711Z,16.37
2016-05-21T08:33:26.528Z,17.14
2016-05-21T08:34:27.203Z,16.96
2016-05-21T08:35:25.784Z,17.35
2016-05-21T08:36:25.803Z,17.34
2016-05-21T08:37:25.822Z,17.73
2016-05-21T08:38:26.292Z,17.83
2016-05-21T08:39:26.170Z,17.54
2016-05-21T08:40:25.969Z,17.15
2016-05-21T08:41:25.910Z,17.34
2016-05-21T08:42:25.913Z,17.35
2016-05-21T08:43:26.149Z,16.96
2016-05-21T08:44:25.949Z,17.34
2016-05-21T08:45:27.014Z,17.24
2016-05-21T08:46:25.985Z,17.72
2016-05-21T08:47:26.004Z,17.91
2016-05-21T08:48:26.022Z,18.1
2016-05-21T08:49:26.041Z,18.77
2016-05-21T08:50:26.059Z,18.95
2016-05-21T08:51:25.921Z,19.34
2016-05-21T08:52:26.095Z,19.32
2016-05-21T08:53:26.114Z,19.51
2016-05-21T08:54:26.117Z,20.19
2016-05-21T08:55:26.135Z,20.86
2016-05-21T08:56:26.387Z,21.05
2016-05-21T08:57:26.187Z,22.02
2016-05-21T08:58:26.034Z,21.91
2016-05-21T08:59:26.209Z,22.2
2016-05-21T09:00:26.226Z,22.1
2016-05-21T09:01:26.245Z,22.87
2016-05-21T09:02:26.247Z,23.35
2016-05-21T09:03:26.267Z,23.93
2016-05-21T09:04:26.269Z,24.01
2016-05-21T09:05:26.286Z,24.3
2016-05-21T09:06:26.290Z,24.29
2016-05-21T09:07:26.308Z,24.77
2016-05-21T09:08:26.311Z,25.15
2016-05-21T09:09:26.329Z,25.05
2016-05-21T09:10:26.348Z,24.96
2016-05-21T09:11:26.350Z,24.87
2016-05-21T09:12:26.369Z,24.97
2016-05-21T09:13:26.371Z,24.87
2016-05-21T09:14:26.389Z,25.35
2016-05-21T09:15:26.392Z,25.05
2016-05-21T09:16:26.410Z,25.15
2016-05-21T09:17:26.413Z,25.93
2016-05-21T09:18:26.454Z,25.93
2016-05-21T09:19:26.478Z,25.84
2016-05-21T09:20:26.516Z,25.64
2016-05-21T09:21:26.384Z,25.15
2016-05-21T09:22:26.580Z,25.35
2016-05-21T09:23:26.589Z,25.07
2016-05-21T09:24:26.600Z,24.96
2016-05-21T09:25:26.626Z,24.88
2016-05-21T09:26:26.652Z,24.97
2016-05-21T09:27:26.662Z,25.26
2016-05-21T09:28:26.683Z,24.78
2016-05-21T09:29:26.531Z,25.26
2016-05-21T09:30:26.694Z,24.97
2016-05-21T09:31:26.714Z,24.96
2016-05-21T09:32:26.736Z,25.35
2016-05-21T09:33:26.724Z,25.74
2016-05-21T09:34:26.743Z,26.32
2016-05-21T09:35:26.748Z,25.82
2016-05-21T09:36:26.767Z,26.31
2016-05-21T09:37:40.961Z,25.64
2016-05-21T09:38:26.633Z,25.05
2016-05-21T09:39:26.793Z,25.15
2016-05-21T09:40:26.795Z,25.15
2016-05-21T09:41:27.908Z,25.74
2016-05-21T09:42:26.693Z,25.54
2016-05-21T09:43:27.227Z,25.45
2016-05-21T09:44:27.042Z,25.07
2016-05-21T09:45:26.856Z,25.07
2016-05-21T09:46:27.562Z,25.45
2016-05-21T09:47:27.581Z,25.64
2016-05-21T09:48:27.334Z,25.64
2016-05-21T09:50:26.744Z,25.64
2016-05-21T09:51:27.389Z,25.74
2016-05-21T09:52:27.688Z,25.14
2016-05-21T09:53:26.925Z,25.63
2016-05-21T09:54:26.943Z,25.73
2016-05-21T09:55:26.946Z,25.43
2016-05-21T09:56:27.370Z,25.92
2016-05-21T09:57:26.966Z,25.92
2016-05-21T09:58:26.969Z,25.92
2016-05-21T09:59:26.832Z,25.92
2016-05-21T10:00:26.991Z,25.63
2016-05-21T10:01:27.180Z,26.01
2016-05-21T10:02:27.011Z,25.82
2016-05-21T10:03:27.546Z,26.31
2016-05-21T10:04:28.111Z,26.2
2016-05-21T10:05:27.848Z,26.49
2016-05-21T10:06:27.038Z,26.1
2016-05-21T10:07:27.041Z,26.68
2016-05-21T10:08:27.059Z,26.49
2016-05-21T10:09:27.062Z,26.59
2016-05-21T10:10:27.065Z,26.59
2016-05-21T10:11:27.082Z,27.07
2016-05-21T10:12:27.085Z,27.07
2016-05-21T10:13:27.104Z,26.49
2016-05-21T10:14:27.106Z,26.4
2016-05-21T10:15:27.109Z,26.79
2016-05-21T10:16:27.127Z,26.21
2016-05-21T10:17:26.974Z,26.11
2016-05-21T10:18:27.133Z,25.54
2016-05-21T10:19:27.150Z,25.93
2016-05-21T10:20:27.169Z,25.93
2016-05-21T10:21:27.188Z,25.65
2016-05-21T10:22:27.175Z,25.56
2016-05-21T10:23:27.022Z,25.16
2016-05-21T10:24:27.040Z,25.07
2016-05-21T10:25:27.198Z,25.16
2016-05-21T10:26:27.779Z,25.26
2016-05-21T10:27:27.219Z,24.78
2016-05-21T10:28:27.222Z,24.68
2016-05-21T10:29:27.241Z,24.88
2016-05-21T10:30:27.243Z,24.68
2016-05-21T10:31:27.261Z,24.39
2016-05-21T10:32:27.264Z,24.39
2016-05-21T10:33:27.267Z,24.39
2016-05-21T10:34:27.285Z,24.29
2016-05-21T10:35:27.288Z,24.3
2016-05-21T10:36:27.307Z,23.82
2016-05-21T10:37:27.310Z,24.3
2016-05-21T10:38:27.312Z,24.11
2016-05-21T10:39:27.330Z,24.21
2016-05-21T10:40:27.333Z,24.3
2016-05-21T10:41:27.710Z,24.3
2016-05-21T10:42:27.353Z,24.21
2016-05-21T10:43:27.356Z,24.3
2016-05-21T10:44:27.374Z,24.11
2016-05-21T10:45:27.377Z,24.29
2016-05-21T10:46:27.239Z,24.49
2016-05-21T10:47:27.398Z,24.29
2016-05-21T10:48:27.401Z,24.57
2016-05-21T10:49:27.420Z,24.77
2016-05-21T10:50:27.422Z,24.87
2016-05-21T10:51:27.440Z,24.77
2016-05-21T10:52:27.443Z,24.57
2016-05-21T10:53:27.446Z,24.67
2016-05-21T10:54:27.464Z,24.87
2016-05-21T10:55:27.483Z,24.57
2016-05-21T10:56:27.486Z,24.67
2016-05-21T10:57:27.489Z,24.67
2016-05-21T10:58:28.443Z,24.77
2016-05-21T10:59:27.494Z,24.77
2016-05-21T11:00:27.511Z,24.66
2016-05-21T11:01:27.514Z,24.67
2016-05-21T11:02:27.782Z,24.67
2016-05-21T11:03:27.536Z,24.38
2016-05-21T11:04:27.397Z,24.38
2016-05-21T11:06:28.215Z,24.27
2016-05-21T11:07:27.577Z,23.97
2016-05-21T11:08:27.580Z,24.46
2016-05-21T11:09:28.035Z,24.27
2016-05-21T11:10:29.101Z,24.17
2016-05-21T11:11:29.463Z,24.76
2016-05-21T11:12:29.029Z,24.85
2016-05-21T11:13:27.968Z,24.56
2016-05-21T11:14:27.627Z,24.66
2016-05-21T11:15:27.630Z,24.66
2016-05-21T11:16:27.648Z,24.85
2016-05-21T11:17:27.651Z,25.04
2016-05-21T11:18:27.654Z,24.66
2016-05-21T11:19:28.453Z,24.66
2016-05-21T11:20:28.753Z,24.76
2016-05-21T11:21:27.693Z,24.56
2016-05-21T11:22:27.695Z,25.14
2016-05-21T11:23:27.698Z,25.43
2016-05-21T11:24:27.717Z,25.43
2016-05-21T11:25:27.953Z,25.14
2016-05-21T11:26:27.737Z,25.04
2016-05-21T11:27:28.146Z,24.85
2016-05-21T11:28:27.603Z,24.67
2016-05-21T11:29:27.589Z,24.77
2016-05-21T11:30:27.764Z,24.66
2016-05-21T11:31:27.766Z,24.96
2016-05-21T11:32:27.613Z,24.57
2016-05-21T11:33:27.631Z,24.77
2016-05-21T11:34:27.791Z,24.87
2016-05-21T11:35:27.808Z,24.67
2016-05-21T11:36:27.811Z,24.67
2016-05-21T11:37:27.814Z,24.67
2016-05-21T11:38:27.817Z,24.76
2016-05-21T11:39:27.835Z,24.46
2016-05-21T11:40:27.838Z,25.24
2016-05-21T11:41:27.840Z,25.04
2016-05-21T11:42:27.859Z,24.95
2016-05-21T11:43:27.861Z,24.93
2016-05-21T11:44:27.880Z,25.13
2016-05-21T11:45:27.882Z,25.23
2016-05-21T11:46:27.885Z,25.03
2016-05-21T11:47:27.732Z,25.24
2016-05-21T11:48:27.907Z,25.24
2016-05-21T11:49:27.909Z,25.04
2016-05-21T11:50:27.912Z,25.63
2016-05-21T11:51:27.929Z,25.24
2016-05-21T11:52:27.932Z,25.14
2016-05-21T11:53:27.935Z,24.85
2016-05-21T11:54:27.969Z,24.85
2016-05-21T11:55:27.956Z,24.37
2016-05-21T11:56:27.959Z,24.37
2016-05-21T11:58:27.823Z,24.37
2016-05-21T11:59:27.998Z,24.07
2016-05-21T12:00:28.000Z,24.18
2016-05-21T12:01:27.847Z,24.28
2016-05-21T12:04:28.028Z,23.71
2016-05-21T12:09:28.072Z,23.14
2016-05-21T12:10:28.091Z,23.72
2016-05-21T12:11:28.358Z,23.44
2016-05-21T12:12:28.111Z,23.54
2016-05-21T12:15:28.166Z,22.37
2016-05-21T12:16:29.122Z,22.17
2016-05-21T12:17:28.140Z,21.98
2016-05-21T12:18:28.143Z,21.98
2016-05-21T12:19:28.146Z,22.09
2016-05-21T12:20:28.461Z,21.89
2016-05-21T12:21:28.167Z,21.5
2016-05-21T12:22:28.185Z,21.31
2016-05-21T12:23:28.187Z,21.31
2016-05-21T12:24:28.597Z,21.02
2016-05-21T12:25:28.553Z,21.31
2016-05-21T12:26:28.961Z,21.41
2016-05-21T12:27:28.386Z,21.41
2016-05-21T12:28:30.639Z,21.5
2016-05-21T12:29:30.047Z,20.93
2016-05-21T12:30:29.644Z,20.83
2016-05-21T12:31:28.100Z,21.22
2016-05-21T12:32:28.806Z,20.93
2016-05-21T12:33:28.575Z,21.32
2016-05-21T12:34:28.311Z,21.03
2016-05-21T12:35:28.298Z,21.22
2016-05-21T12:36:28.316Z,21.32
2016-05-21T12:37:28.335Z,21.12
2016-05-21T12:40:28.811Z,20.73
2016-05-21T12:41:28.204Z,20.73
2016-05-21T12:42:29.146Z,20.34
2016-05-21T12:43:28.898Z,20.63
2016-05-21T12:44:28.463Z,20.24
2016-05-21T12:45:28.388Z,20.34
2016-05-21T12:46:28.406Z,20.54
2016-05-21T12:47:28.409Z,20.53
2016-05-21T12:48:28.411Z,20.54
2016-05-21T12:49:28.429Z,20.54
2016-05-21T12:50:28.432Z,20.54
2016-05-21T12:51:29.248Z,20.06
2016-05-21T12:52:28.454Z,20.25
2016-05-21T12:53:28.471Z,19.86
2016-05-21T12:54:28.474Z,19.67
2016-05-21T12:55:28.476Z,19.58
2016-05-21T12:56:28.542Z,19.57
2016-05-21T12:57:28.967Z,19.76
2016-05-21T12:58:28.500Z,20.06
2016-05-21T12:59:28.362Z,19.57
2016-05-21T13:00:28.381Z,19.58
2016-05-21T13:01:28.540Z,19.48
2016-05-21T13:02:28.542Z,19.68
2016-05-21T13:03:28.405Z,19.29
2016-05-21T13:04:28.564Z,19.48
2016-05-21T13:05:28.582Z,19.78
2016-05-21T13:06:28.585Z,19.68
2016-05-21T13:07:28.587Z,19.68
2016-05-21T13:08:28.605Z,19.78
2016-05-21T13:09:28.608Z,19.58
2016-05-21T13:10:28.627Z,19.68
2016-05-21T13:11:28.927Z,19.78
2016-05-21T13:12:29.382Z,19.87
2016-05-21T13:13:28.650Z,19.76
2016-05-21T13:14:28.668Z,20.25
2016-05-21T13:15:28.672Z,20.04